createdAt,value
2023-05-25T00:01:04.728Z,8.05
2023-05-25T00:03:36.138Z,7.63
2023-05-25T00:06:06.101Z,7.78
2023-05-25T00:08:40.436Z,7.53
2023-05-25T00:11:11.142Z,7.85
2023-05-25T00:13:39.682Z,7.80
2023-05-25T00:16:13.572Z,8.30
2023-05-25T00:18:43.590Z,8.27
2023-05-25T00:21:21.054Z,8.15
2023-05-25T00:23:53.170Z,8.82
2023-05-25T00:26:25.968Z,7.75
2023-05-25T00:28:53.571Z,7.80
2023-05-25T00:31:24.239Z,7.90
2023-05-25T00:33:57.058Z,8.23
2023-05-25T00:36:27.802Z,7.88
2023-05-25T00:38:57.614Z,7.63
2023-05-25T00:41:29.030Z,7.57
2023-05-25T00:44:00.709Z,7.95
2023-05-25T00:46:29.079Z,8.07
2023-05-25T00:48:59.126Z,8.02
2023-05-25T00:51:33.095Z,9.10
2023-05-25T00:54:06.177Z,7.68
2023-05-25T00:56:40.533Z,8.38
2023-05-25T00:59:17.356Z,7.60
2023-05-25T01:01:47.484Z,8.52
2023-05-25T01:04:22.238Z,7.85
2023-05-25T01:06:54.543Z,7.25
2023-05-25T04:18:20.576Z,7.05
2023-05-25T04:20:57.317Z,7.30
2023-05-25T04:23:29.966Z,8.15
2023-05-25T04:26:03.509Z,7.68
2023-05-25T04:31:25.023Z,7.72
2023-05-25T04:34:09.699Z,7.07
2023-05-25T04:36:45.498Z,7.90
2023-05-25T04:39:15.943Z,7.47
2023-05-25T04:41:53.026Z,7.72
2023-05-25T04:44:20.729Z,7.75
2023-05-25T04:46:55.583Z,7.28
2023-05-25T04:49:45.885Z,8.02
2023-05-25T04:52:14.870Z,8.48
2023-05-25T04:54:46.869Z,6.47
2023-05-25T04:57:22.375Z,7.25
2023-05-25T04:59:52.920Z,7.00
2023-05-25T05:02:23.327Z,7.72
2023-05-25T05:04:54.000Z,8.05
2023-05-25T05:07:29.116Z,6.88
2023-05-25T05:09:56.927Z,8.18
2023-05-25T05:12:27.853Z,7.60
2023-05-25T05:15:00.029Z,7.90
2023-05-25T05:17:30.658Z,7.50
2023-05-25T05:20:01.126Z,6.93
2023-05-25T05:22:33.479Z,7.07
2023-05-25T05:25:04.795Z,7.32
2023-05-25T05:27:35.080Z,7.53
2023-05-25T05:30:10.042Z,6.75
2023-05-25T05:32:46.533Z,6.43
2023-05-25T05:35:17.235Z,7.97
2023-05-25T05:37:54.641Z,7.78
2023-05-25T05:40:27.798Z,8.02
2023-05-25T05:42:58.038Z,7.63
2023-05-25T05:45:31.623Z,6.60
2023-05-25T05:48:04.914Z,7.63
2023-05-25T05:50:44.778Z,6.47
2023-05-25T05:53:14.692Z,7.30
2023-05-25T05:55:56.375Z,7.15
2023-05-25T05:58:33.475Z,6.57
2023-05-25T06:01:04.708Z,6.80
2023-05-25T06:03:32.756Z,8.30
2023-05-25T06:06:06.735Z,8.80
2023-05-25T06:08:41.166Z,7.88
2023-05-25T06:11:15.537Z,7.50
2023-05-25T06:13:48.628Z,7.70
2023-05-25T06:16:20.029Z,7.38
2023-05-25T06:18:54.344Z,7.53
2023-05-25T06:21:22.278Z,7.20
2023-05-25T06:23:58.946Z,6.05
2023-05-25T06:26:32.765Z,7.88
2023-05-25T06:29:06.609Z,7.95
2023-05-25T06:31:37.556Z,7.72
2023-05-25T06:34:11.299Z,7.85
2023-05-25T06:36:50.584Z,8.88
2023-05-25T06:39:24.177Z,6.70
2023-05-25T06:42:02.817Z,6.95
2023-05-25T06:44:43.673Z,8.00
2023-05-25T06:47:17.079Z,7.00
2023-05-25T06:49:48.115Z,7.85
2023-05-25T06:52:31.459Z,9.25
2023-05-25T06:55:00.244Z,7.50
2023-05-25T06:57:30.476Z,7.63
2023-05-25T07:00:00.592Z,9.60
2023-05-25T07:02:31.127Z,6.63
2023-05-25T07:05:05.875Z,8.98
2023-05-25T07:07:39.451Z,7.43
2023-05-25T07:10:11.776Z,8.32
2023-05-25T07:12:39.745Z,7.20
2023-05-25T07:15:08.412Z,8.35
2023-05-25T07:17:45.301Z,8.52
2023-05-25T07:20:24.668Z,6.85
2023-05-25T07:23:01.730Z,9.00
2023-05-25T07:25:37.496Z,8.93
2023-05-25T07:28:11.782Z,8.23
2023-05-25T07:30:41.487Z,7.43
2023-05-25T07:33:10.242Z,7.28
2023-05-25T07:35:40.883Z,7.30
2023-05-25T07:38:09.396Z,8.57
2023-05-25T07:40:42.377Z,7.13
2023-05-25T07:43:15.065Z,6.75
2023-05-25T07:45:46.599Z,8.73
2023-05-25T07:48:17.285Z,9.00
2023-05-25T07:50:55.933Z,9.43
2023-05-25T07:53:26.826Z,6.53
2023-05-25T07:55:57.762Z,6.82
2023-05-25T07:58:31.367Z,7.13
2023-05-25T08:01:02.174Z,7.60
2023-05-25T08:03:47.967Z,7.45
2023-05-25T08:06:18.084Z,10.95
2023-05-25T08:08:52.155Z,8.23
2023-05-25T08:11:26.863Z,6.90
2023-05-25T08:13:55.024Z,6.95
2023-05-25T08:16:23.017Z,6.72
2023-05-25T08:18:53.726Z,7.88
2023-05-25T08:21:26.613Z,7.50
2023-05-25T08:24:08.537Z,8.30
2023-05-25T08:26:53.183Z,7.43
2023-05-25T08:29:31.381Z,7.18
2023-05-25T08:32:07.409Z,7.90
2023-05-25T08:34:40.796Z,6.97
2023-05-25T08:37:14.759Z,7.70
2023-05-25T08:39:47.832Z,10.38
2023-05-25T08:42:15.969Z,8.43
2023-05-25T08:44:49.775Z,8.45
2023-05-25T08:47:25.241Z,8.25
2023-05-25T08:50:02.110Z,8.52
2023-05-25T08:52:33.547Z,9.10
2023-05-25T08:55:10.174Z,6.63
2023-05-25T08:58:07.441Z,8.70
2023-05-25T09:00:45.909Z,8.65
2023-05-25T09:03:18.586Z,6.47
2023-05-25T09:05:54.749Z,8.00
2023-05-25T09:08:30.228Z,8.10
2023-05-25T09:10:58.797Z,7.38
2023-05-25T09:13:26.899Z,8.38
2023-05-25T09:16:02.494Z,7.22
2023-05-25T09:18:36.040Z,7.10
2023-05-25T09:21:06.450Z,8.48
2023-05-25T09:23:41.080Z,8.27
2023-05-25T09:26:15.905Z,8.07
2023-05-25T09:28:53.609Z,8.80
2023-05-25T09:31:28.760Z,7.10
2023-05-25T09:34:04.066Z,6.50
2023-05-25T09:36:41.597Z,7.55
2023-05-25T09:39:16.375Z,8.57
2023-05-25T09:41:52.581Z,6.28
2023-05-25T09:44:26.915Z,6.43
2023-05-25T09:46:57.977Z,6.07
2023-05-25T09:49:29.207Z,7.35
2023-05-25T09:52:06.066Z,7.45
2023-05-25T09:54:47.040Z,7.78
2023-05-25T09:57:27.244Z,6.65
2023-05-25T10:00:00.717Z,5.68
2023-05-25T10:02:35.156Z,6.10
2023-05-25T10:05:07.596Z,6.40
2023-05-25T10:07:40.727Z,6.33
2023-05-25T10:10:16.248Z,5.63
2023-05-25T10:12:50.149Z,5.20
2023-05-25T10:15:27.354Z,4.88
2023-05-25T10:18:02.090Z,5.65
2023-05-25T10:20:35.073Z,4.05
2023-05-25T10:23:12.797Z,4.65
2023-05-25T10:25:50.671Z,4.88
2023-05-25T10:28:27.527Z,4.22
2023-05-25T10:31:02.083Z,6.35
2023-05-25T10:33:36.311Z,5.75
2023-05-25T10:38:44.853Z,4.28
2023-05-25T10:41:16.320Z,5.53
2023-05-25T10:43:53.888Z,6.10
2023-05-25T10:46:22.430Z,4.28
2023-05-25T10:49:00.769Z,3.92
2023-05-25T10:51:41.958Z,4.95
2023-05-25T10:54:18.998Z,3.88
2023-05-25T10:57:14.402Z,4.82
2023-05-25T10:59:52.336Z,4.82
2023-05-25T11:02:26.157Z,4.38
2023-05-25T11:05:19.762Z,5.07
2023-05-25T11:08:00.764Z,4.50
2023-05-25T11:10:53.178Z,3.80
2023-05-25T11:13:32.559Z,3.33
2023-05-25T11:16:22.132Z,5.63
2023-05-25T11:18:59.191Z,5.88
2023-05-25T11:21:32.893Z,3.88
2023-05-25T11:24:03.045Z,3.42
2023-05-25T11:26:52.394Z,4.35
2023-05-25T11:29:25.434Z,3.08
2023-05-25T11:31:56.767Z,5.13
2023-05-25T11:34:29.185Z,4.60
2023-05-25T11:37:02.044Z,3.53
2023-05-25T11:39:41.002Z,6.00
2023-05-25T11:42:15.261Z,4.45
2023-05-25T11:44:46.441Z,3.97
2023-05-25T11:47:23.323Z,3.53
2023-05-25T11:49:58.697Z,3.90
2023-05-25T11:52:29.587Z,4.18
2023-05-25T11:54:57.710Z,4.57
2023-05-25T11:57:31.714Z,3.60
2023-05-25T12:00:07.305Z,2.50
2023-05-25T12:02:43.276Z,3.30
2023-05-25T12:05:12.008Z,6.75
2023-05-25T12:07:50.840Z,2.97
2023-05-25T12:10:21.496Z,4.43
2023-05-25T12:15:31.691Z,4.07
2023-05-25T12:18:02.801Z,6.55
2023-05-25T12:20:38.855Z,4.85
2023-05-25T12:23:16.689Z,4.22
2023-05-25T12:25:51.775Z,6.90
2023-05-25T12:28:29.015Z,3.42
2023-05-25T12:31:23.450Z,4.40
2023-05-25T12:34:12.293Z,5.88
2023-05-25T12:36:52.826Z,5.22
2023-05-25T12:39:29.608Z,4.53
2023-05-25T12:42:13.464Z,6.32
2023-05-25T12:44:48.815Z,5.40
2023-05-25T12:47:23.461Z,3.35
2023-05-25T12:50:12.791Z,5.93
2023-05-25T12:52:46.563Z,4.22
2023-05-25T12:55:27.485Z,4.65
2023-05-25T12:58:04.834Z,2.83
2023-05-25T13:00:41.140Z,4.50
2023-05-25T13:03:17.433Z,3.80
2023-05-25T13:05:52.055Z,2.65
2023-05-25T13:08:25.800Z,5.07
2023-05-25T13:10:56.365Z,6.15
2023-05-25T13:13:33.061Z,3.03
2023-05-25T13:16:04.748Z,6.53
2023-05-25T13:18:40.505Z,3.75
2023-05-25T13:21:12.605Z,4.28
2023-05-25T13:23:43.534Z,4.88
2023-05-25T13:26:12.664Z,5.18
2023-05-25T13:28:43.011Z,5.85
2023-05-25T13:31:18.601Z,5.65
2023-05-25T13:33:58.697Z,4.80
2023-05-25T13:36:29.655Z,5.93
2023-05-25T13:39:01.801Z,6.82
2023-05-25T13:41:32.476Z,5.13
2023-05-25T13:44:11.509Z,5.53
2023-05-25T13:46:47.496Z,4.65
2023-05-25T13:49:26.357Z,3.75
2023-05-25T13:51:57.982Z,5.50
2023-05-25T13:54:34.243Z,5.72
2023-05-25T13:57:08.976Z,5.47
2023-05-25T13:59:43.160Z,4.32
2023-05-25T14:02:16.317Z,7.18
2023-05-25T14:04:46.185Z,5.45
2023-05-25T14:07:24.338Z,5.40
2023-05-25T14:09:54.912Z,5.25
2023-05-25T14:12:32.624Z,3.72
2023-05-25T14:15:13.573Z,5.10
2023-05-25T14:17:49.780Z,4.10
2023-05-25T14:20:26.353Z,4.25
2023-05-25T14:23:02.682Z,7.55
2023-05-25T14:25:38.727Z,6.13
2023-05-25T14:28:18.332Z,7.65
2023-05-25T14:30:54.025Z,4.68
2023-05-25T14:33:32.908Z,5.50
2023-05-25T14:36:05.875Z,6.45
2023-05-25T14:38:41.993Z,6.00
2023-05-25T14:41:22.800Z,7.18
2023-05-25T14:43:56.150Z,7.55
2023-05-25T14:48:56.321Z,7.65
2023-05-25T14:51:28.526Z,6.90
2023-05-25T14:54:01.495Z,7.90
2023-05-25T14:56:35.005Z,5.95
2023-05-25T14:59:04.581Z,5.90
2023-05-25T15:01:41.273Z,5.75
2023-05-25T15:04:14.951Z,8.00
2023-05-25T15:07:00.959Z,5.88
2023-05-25T15:09:33.666Z,8.15
2023-05-25T15:12:13.278Z,6.55
2023-05-25T15:14:46.809Z,5.85
2023-05-25T15:17:17.673Z,6.03
2023-05-25T15:19:48.812Z,8.57
2023-05-25T15:22:21.570Z,7.68
2023-05-25T15:24:54.996Z,7.18
2023-05-25T15:27:27.221Z,6.57
2023-05-25T15:29:59.042Z,8.13
2023-05-25T15:32:38.388Z,5.78
2023-05-25T15:35:12.113Z,7.50
2023-05-25T15:37:51.729Z,5.97
2023-05-25T15:40:29.198Z,6.95
2023-05-25T15:43:06.398Z,7.15
2023-05-25T15:45:42.065Z,6.63
2023-05-25T15:48:18.054Z,5.68
2023-05-25T15:50:53.083Z,5.75
2023-05-25T15:53:29.226Z,7.60
2023-05-25T15:56:00.454Z,6.68
2023-05-25T15:58:41.716Z,7.47
2023-05-25T16:01:18.059Z,6.10
2023-05-25T16:03:54.031Z,6.93
2023-05-25T16:06:24.729Z,6.18
2023-05-25T16:09:01.258Z,6.45
2023-05-25T16:11:34.124Z,7.60
2023-05-25T16:14:07.547Z,6.35
2023-05-25T16:16:37.926Z,7.55
2023-05-25T16:19:13.818Z,6.93
2023-05-25T16:21:42.032Z,7.22
2023-05-25T16:24:12.721Z,7.65
2023-05-25T16:26:43.503Z,6.38
2023-05-25T16:29:11.899Z,7.70
2023-05-25T16:31:39.841Z,7.22
2023-05-25T16:34:07.860Z,5.40
2023-05-25T16:36:35.942Z,6.85
2023-05-25T16:39:05.158Z,5.30
2023-05-25T16:41:33.098Z,6.05
2023-05-25T16:44:01.615Z,5.60
2023-05-25T16:46:30.042Z,6.95
2023-05-25T16:49:02.750Z,7.38
2023-05-25T16:51:30.518Z,6.50
2023-05-25T16:54:01.373Z,6.93
2023-05-25T16:56:34.357Z,6.18
2023-05-25T16:59:02.114Z,5.40
2023-05-25T17:01:33.150Z,6.97
2023-05-25T17:04:04.521Z,5.78
2023-05-25T17:06:36.677Z,6.07
2023-05-25T17:09:04.313Z,5.68
2023-05-25T17:11:31.977Z,5.97
2023-05-25T17:14:04.886Z,6.35
2023-05-25T17:16:35.437Z,6.15
2023-05-25T17:19:08.438Z,6.35
2023-05-25T17:21:39.770Z,6.63
2023-05-25T17:24:08.501Z,7.40
2023-05-25T17:26:36.333Z,6.22
2023-05-25T17:29:06.159Z,5.55
2023-05-25T17:31:33.825Z,5.45
2023-05-25T17:34:07.016Z,5.68
2023-05-25T17:36:37.869Z,6.53
2023-05-25T17:39:09.145Z,5.95
2023-05-25T17:41:37.082Z,5.28
2023-05-25T17:44:05.940Z,7.03
2023-05-25T17:46:38.905Z,6.28
2023-05-25T17:49:06.692Z,6.38
2023-05-25T17:51:34.430Z,6.13
2023-05-25T17:54:07.719Z,6.25
2023-05-25T17:56:38.422Z,6.28
2023-05-25T17:59:11.947Z,5.57
2023-05-25T18:01:40.784Z,6.90
2023-05-25T18:04:12.389Z,6.22
2023-05-25T18:06:45.764Z,6.28
2023-05-25T18:09:19.931Z,5.90
2023-05-25T18:11:56.607Z,5.63
2023-05-25T18:14:35.333Z,5.63
2023-05-25T18:17:09.363Z,7.15
2023-05-25T18:19:42.887Z,6.03
2023-05-25T18:22:10.545Z,5.10
2023-05-25T18:24:43.128Z,5.75
2023-05-25T18:27:13.959Z,4.83
2023-05-25T18:29:45.217Z,9.30
2023-05-25T18:32:18.370Z,6.57
2023-05-25T18:34:49.106Z,5.78
2023-05-25T18:37:16.861Z,6.20
2023-05-25T18:39:44.604Z,4.65
2023-05-25T18:42:17.584Z,5.53
2023-05-25T18:44:50.935Z,5.57
2023-05-25T18:47:18.827Z,5.20
2023-05-25T18:49:47.136Z,7.50
2023-05-25T18:52:20.983Z,4.50
2023-05-25T18:54:49.284Z,5.88
2023-05-25T18:57:17.179Z,5.47
2023-05-25T18:59:44.782Z,4.40
2023-05-25T19:02:14.915Z,4.93
2023-05-25T19:04:47.677Z,4.75
2023-05-25T19:07:18.205Z,5.22
2023-05-25T19:09:48.256Z,4.85
2023-05-25T19:12:16.168Z,5.13
2023-05-25T19:14:47.083Z,5.85
2023-05-25T19:17:22.445Z,5.75
2023-05-25T19:19:50.058Z,6.60
2023-05-25T19:22:20.947Z,5.95
2023-05-25T19:24:57.498Z,5.18
2023-05-25T19:27:28.617Z,6.70
2023-05-25T19:30:05.650Z,4.82
2023-05-25T19:32:35.835Z,5.93
2023-05-25T19:35:06.559Z,5.47
2023-05-25T19:37:37.996Z,5.65
2023-05-25T19:40:09.545Z,5.32
2023-05-25T19:42:40.219Z,6.30
2023-05-25T19:45:11.008Z,4.68
2023-05-25T19:47:39.128Z,5.85
2023-05-25T19:50:07.684Z,5.25
2023-05-25T19:52:36.444Z,4.75
2023-05-25T19:55:10.029Z,5.95
2023-05-25T19:57:40.217Z,5.57
2023-05-25T20:00:17.574Z,6.05
2023-05-25T20:02:56.255Z,5.47
2023-05-25T20:05:26.761Z,7.10
2023-05-25T20:08:03.818Z,6.90
2023-05-25T20:10:38.992Z,4.93
2023-05-25T20:13:12.593Z,5.85
2023-05-25T20:15:45.358Z,5.18
2023-05-25T20:18:16.482Z,5.32
2023-05-25T20:20:49.479Z,6.75
2023-05-25T20:23:17.219Z,5.38
2023-05-25T20:25:50.143Z,4.72
2023-05-25T20:28:20.988Z,4.57
2023-05-25T20:30:50.964Z,5.60
2023-05-25T20:33:25.678Z,6.57
2023-05-25T20:36:04.876Z,6.53
2023-05-25T20:38:34.655Z,5.53
2023-05-25T20:41:02.760Z,4.95
2023-05-25T20:43:30.681Z,6.65
2023-05-25T20:46:24.016Z,5.63
2023-05-25T20:48:53.525Z,4.38
2023-05-25T20:51:24.358Z,5.70
2023-05-25T20:54:01.249Z,4.45
2023-05-25T20:56:32.167Z,6.28
2023-05-25T20:59:02.278Z,5.43
2023-05-25T21:01:35.819Z,4.95
2023-05-25T21:04:04.317Z,4.90
2023-05-25T21:06:32.212Z,4.80
2023-05-25T21:09:02.451Z,5.07
2023-05-25T21:11:33.654Z,5.13
2023-05-25T21:14:09.997Z,5.57
2023-05-25T21:16:37.653Z,4.55
2023-05-25T21:19:05.780Z,4.50
2023-05-25T21:21:34.587Z,5.25
2023-05-25T21:24:07.694Z,4.30
2023-05-25T21:26:37.654Z,5.82
2023-05-25T21:29:05.425Z,5.78
2023-05-25T21:31:37.608Z,4.93
2023-05-25T21:34:08.145Z,4.82
2023-05-25T21:36:36.438Z,4.78
2023-05-25T21:39:06.896Z,5.57
2023-05-25T21:41:39.547Z,5.60
2023-05-25T21:44:10.224Z,5.50
2023-05-25T21:46:39.234Z,5.47
2023-05-25T21:49:07.719Z,5.35
2023-05-25T21:51:36.544Z,5.78
2023-05-25T21:54:16.713Z,5.05
2023-05-25T21:56:44.528Z,6.18
2023-05-25T21:59:12.400Z,5.03
2023-05-25T22:01:40.151Z,5.93
2023-05-25T22:04:10.498Z,6.85
2023-05-25T22:06:48.560Z,4.50
2023-05-25T22:09:18.485Z,5.63
2023-05-25T22:11:54.322Z,5.13
2023-05-25T22:14:26.832Z,5.47
2023-05-25T22:16:59.633Z,5.68
2023-05-25T22:19:29.528Z,5.75
2023-05-25T22:21:59.946Z,5.68
2023-05-25T22:24:37.997Z,5.45
2023-05-25T22:27:09.214Z,6.00
2023-05-25T22:29:39.307Z,6.53
2023-05-25T22:32:07.050Z,6.47
2023-05-25T22:34:35.042Z,5.22
2023-05-25T22:37:04.783Z,6.30
2023-05-25T22:39:32.561Z,4.85
2023-05-25T22:42:02.304Z,5.32
2023-05-25T22:44:29.868Z,4.95
2023-05-25T22:47:06.140Z,5.38
2023-05-25T22:49:41.750Z,5.05
2023-05-25T22:52:14.347Z,5.53
2023-05-25T22:54:44.409Z,6.68
2023-05-25T22:57:12.026Z,5.93
2023-05-25T22:59:42.389Z,6.63
2023-05-25T23:02:12.657Z,6.47
2023-05-25T23:04:40.709Z,6.43
2023-05-25T23:07:14.283Z,6.97
2023-05-25T23:09:42.629Z,6.35
2023-05-25T23:12:18.459Z,6.03
2023-05-25T23:14:46.324Z,5.03
2023-05-25T23:17:16.352Z,4.65
2023-05-25T23:19:44.855Z,6.60
2023-05-25T23:22:17.816Z,5.80
2023-05-25T23:24:45.869Z,5.72
2023-05-25T23:27:19.478Z,6.25
2023-05-25T23:29:50.793Z,6.15
2023-05-25T23:32:21.132Z,4.90
2023-05-25T23:34:51.240Z,5.85
2023-05-25T23:37:25.318Z,6.25
2023-05-25T23:39:55.516Z,6.25
2023-05-25T23:42:37.284Z,5.88
2023-05-25T23:45:05.740Z,6.45
2023-05-25T23:47:36.291Z,5.22
2023-05-25T23:50:12.045Z,6.22
2023-05-25T23:52:47.525Z,5.10
2023-05-25T23:55:18.356Z,5.70
2023-05-25T23:57:51.211Z,5.70
